Time;durP1;ratioP1;P1;durP2;ratioP2;P2;SDS_P1;SDS_P2;PMS_P1;PMS_P2;Temp;Humidity;BMP_temperature;BMP_pressure;BME280_temperature;BME280_humidity;BME280_pressure;Samples;Min_cycle;Max_cycle;Signal;HPM_P1;HPM_P2
2023/12/12 00:01:42;;;;;;;7.65;2.35;;;7.70;99.90;;;;;;4999117;28;20046;-80
2023/12/12 00:04:08;;;;;;;6.75;2.05;;;7.70;99.90;;;;;;5003064;28;20022;-80
2023/12/12 00:06:34;;;;;;;6.85;2.28;;;7.70;99.90;;;;;;4998706;28;20019;-80
2023/12/12 00:08:59;;;;;;;6.20;2.17;;;7.70;99.90;;;;;;4996532;28;20030;-79
2023/12/12 00:11:25;;;;;;;8.52;2.00;;;7.70;99.90;;;;;;4995915;28;20377;-79
2023/12/12 00:13:51;;;;;;;9.70;2.15;;;7.70;99.90;;;;;;4999374;28;20034;-80
2023/12/12 00:16:16;;;;;;;5.70;1.67;;;7.70;99.90;;;;;;4997786;28;20034;-79
2023/12/12 00:18:42;;;;;;;4.47;2.35;;;7.70;99.90;;;;;;4998397;28;20042;-80
2023/12/12 00:21:07;;;;;;;6.38;1.95;;;7.70;99.90;;;;;;4996428;28;20080;-79
2023/12/12 00:23:33;;;;;;;6.38;1.95;;;7.70;99.90;;;;;;4993291;28;20045;-78
2023/12/12 00:25:59;;;;;;;4.85;1.92;;;7.70;99.90;;;;;;4997716;28;20039;-79
2023/12/12 00:28:25;;;;;;;7.20;1.63;;;7.60;99.90;;;;;;4994509;28;20054;-79
2023/12/12 00:30:51;;;;;;;4.72;1.52;;;7.70;99.90;;;;;;4993786;28;20037;-79
2023/12/12 00:33:17;;;;;;;4.50;1.60;;;7.70;99.90;;;;;;4995960;28;20022;-79
2023/12/12 00:35:43;;;;;;;6.10;2.00;;;7.70;99.90;;;;;;4992630;28;20026;-79
2023/12/12 00:38:08;;;;;;;7.70;1.30;;;7.70;99.90;;;;;;4997310;28;20107;-79
2023/12/12 00:40:34;;;;;;;4.05;1.50;;;7.70;99.90;;;;;;4998253;28;20035;-79
2023/12/12 00:42:59;;;;;;;5.47;1.25;;;7.70;99.90;;;;;;4993704;28;20030;-79
2023/12/12 00:45:25;;;;;;;5.25;1.38;;;7.70;99.90;;;;;;4991241;28;20031;-79
2023/12/12 00:47:50;;;;;;;4.47;1.42;;;7.70;99.90;;;;;;4996386;28;20038;-79
2023/12/12 00:50:16;;;;;;;9.15;2.13;;;7.70;99.90;;;;;;4998585;28;20034;-79
2023/12/12 00:52:42;;;;;;;3.33;1.50;;;7.70;99.90;;;;;;4996901;28;20045;-79
2023/12/12 00:55:08;;;;;;;7.78;1.40;;;7.70;99.90;;;;;;4993698;28;20034;-79
2023/12/12 00:57:34;;;;;;;10.88;2.35;;;7.70;99.90;;;;;;4996218;28;20034;-79
2023/12/12 01:00:00;;;;;;;5.03;1.30;;;7.70;99.90;;;;;;4992696;28;20030;-80
2023/12/12 01:02:26;;;;;;;6.13;1.80;;;7.70;99.90;;;;;;4993343;28;20018;-79
2023/12/12 01:04:52;;;;;;;3.85;1.30;;;7.80;99.90;;;;;;4998087;28;20026;-79
2023/12/12 01:07:18;;;;;;;7.05;1.27;;;7.70;99.90;;;;;;4995712;28;20045;-79
2023/12/12 01:09:44;;;;;;;3.97;1.00;;;7.70;99.90;;;;;;4997596;28;20061;-79
2023/12/12 01:12:10;;;;;;;5.05;1.50;;;7.80;99.90;;;;;;5000631;28;20042;-79
2023/12/12 01:14:35;;;;;;;7.47;1.23;;;7.80;99.90;;;;;;4994121;28;20101;-79
2023/12/12 01:17:03;;;;;;;4.55;1.42;;;7.80;99.90;;;;;;4995008;28;20034;-79
2023/12/12 01:19:29;;;;;;;7.88;1.35;;;7.80;99.90;;;;;;4993567;28;20126;-79
2023/12/12 01:21:55;;;;;;;5.45;1.42;;;7.80;99.90;;;;;;4993332;28;20022;-79
2023/12/12 01:24:20;;;;;;;7.05;2.35;;;7.80;99.90;;;;;;4993162;28;20029;-79
2023/12/12 01:26:46;;;;;;;10.60;5.32;;;7.80;99.90;;;;;;4994608;28;20211;-80
2023/12/12 01:29:14;;;;;;;7.50;2.35;;;7.70;99.90;;;;;;4996828;28;20026;-80
2023/12/12 01:31:40;;;;;;;9.00;2.20;;;7.70;99.90;;;;;;4992998;28;20579;-79
2023/12/12 01:34:05;;;;;;;7.65;2.00;;;7.70;99.90;;;;;;4994751;28;20060;-79
2023/12/12 01:36:31;;;;;;;4.90;1.40;;;7.70;99.90;;;;;;4994994;28;20467;-79
2023/12/12 01:38:57;;;;;;;3.92;1.27;;;7.70;99.90;;;;;;4991558;28;20077;-79
2023/12/12 01:41:23;;;;;;;5.55;1.33;;;7.60;99.90;;;;;;4991241;28;20364;-79
2023/12/12 01:43:48;;;;;;;6.03;2.17;;;7.60;99.90;;;;;;4993336;28;20054;-79
2023/12/12 01:46:16;;;;;;;3.20;1.20;;;7.60;99.90;;;;;;4995666;28;20549;-80
2023/12/12 01:48:42;;;;;;;4.53;1.30;;;7.50;99.90;;;;;;4992110;28;20097;-79
2023/12/12 01:51:07;;;;;;;3.15;1.17;;;7.50;99.90;;;;;;4989361;28;20117;-79
2023/12/12 01:53:41;;;;;;;4.18;1.20;;;7.50;99.90;;;;;;4992489;28;20118;-79
2023/12/12 01:56:07;;;;;;;6.28;2.05;;;7.50;99.90;;;;;;5000126;28;20031;-79
2023/12/12 01:58:35;;;;;;;7.97;1.58;;;7.50;99.90;;;;;;4995942;28;20045;-79
2023/12/12 02:01:02;;;;;;;3.65;1.50;;;7.50;99.90;;;;;;4995694;28;20034;-79
2023/12/12 02:03:29;;;;;;;2.97;1.02;;;7.40;99.90;;;;;;4994321;28;20145;-79
2023/12/12 02:05:58;;;;;;;5.05;1.38;;;7.40;99.90;;;;;;4991967;28;20034;-79
2023/12/12 02:08:26;;;;;;;4.53;1.20;;;7.40;99.90;;;;;;4992369;28;20023;-80
2023/12/12 02:10:52;;;;;;;6.53;1.95;;;7.40;99.90;;;;;;4989694;28;20116;-79
2023/12/12 02:13:18;;;;;;;5.07;1.05;;;7.40;99.90;;;;;;4997041;28;20022;-79
2023/12/12 02:15:44;;;;;;;5.05;1.30;;;7.40;99.90;;;;;;4996821;28;20046;-80
2023/12/12 02:18:11;;;;;;;4.40;1.35;;;7.30;99.90;;;;;;4993174;28;20117;-79
2023/12/12 02:20:36;;;;;;;4.43;1.13;;;7.30;99.90;;;;;;4996349;28;20053;-79
2023/12/12 02:23:02;;;;;;;5.03;1.20;;;7.30;99.90;;;;;;4998318;28;20026;-79
2023/12/12 02:25:27;;;;;;;4.65;1.08;;;7.30;99.90;;;;;;4995666;28;20019;-79
2023/12/12 02:27:53;;;;;;;5.20;1.52;;;7.30;99.90;;;;;;4987881;28;20034;-80
2023/12/12 02:30:19;;;;;;;9.45;1.48;;;7.30;99.90;;;;;;4994809;28;20085;-80
2023/12/12 02:32:45;;;;;;;3.70;1.00;;;7.30;99.90;;;;;;4993554;28;20028;-80
2023/12/12 02:35:10;;;;;;;4.93;1.17;;;7.30;99.90;;;;;;4987625;28;20043;-79
2023/12/12 02:37:36;;;;;;;7.43;1.23;;;7.20;99.90;;;;;;4989474;28;20411;-79
2023/12/12 02:40:02;;;;;;;3.95;1.20;;;7.30;99.90;;;;;;4995259;28;20108;-79
2023/12/12 02:42:27;;;;;;;2.88;1.02;;;7.20;99.90;;;;;;4992416;28;20033;-79
2023/12/12 02:44:55;;;;;;;4.00;1.00;;;7.20;99.90;;;;;;4990835;28;20019;-79
2023/12/12 02:47:22;;;;;;;3.30;1.17;;;7.20;99.90;;;;;;4993200;28;20270;-79
2023/12/12 02:49:48;;;;;;;4.25;1.08;;;7.20;99.90;;;;;;4998348;28;20034;-79
2023/12/12 02:52:14;;;;;;;3.90;1.10;;;7.20;99.90;;;;;;4990883;28;20051;-79
2023/12/12 02:54:40;;;;;;;7.13;1.70;;;7.20;99.90;;;;;;4992196;28;20415;-79
2023/12/12 02:57:06;;;;;;;3.38;1.10;;;7.10;99.90;;;;;;4994661;28;20035;-80
2023/12/12 02:59:32;;;;;;;2.90;1.08;;;7.20;99.90;;;;;;4994380;28;20061;-80
2023/12/12 03:01:57;;;;;;;5.55;1.45;;;7.10;99.90;;;;;;4990539;28;20030;-79
2023/12/12 03:04:23;;;;;;;5.65;1.13;;;7.10;99.90;;;;;;4990069;28;20042;-79
2023/12/12 03:06:48;;;;;;;3.05;1.00;;;7.10;99.90;;;;;;4990787;28;20022;-79
2023/12/12 03:09:14;;;;;;;3.70;0.98;;;7.10;99.90;;;;;;4994708;28;20516;-79
2023/12/12 03:11:39;;;;;;;5.70;1.25;;;7.10;99.90;;;;;;4994941;28;20054;-78
2023/12/12 03:14:05;;;;;;;3.45;1.23;;;7.00;99.90;;;;;;4990076;28;20035;-79
2023/12/12 03:16:31;;;;;;;4.85;1.45;;;7.00;99.90;;;;;;4994949;28;20443;-78
2023/12/12 03:18:56;;;;;;;4.65;1.17;;;7.00;99.90;;;;;;4990555;28;20032;-78
2023/12/12 03:21:22;;;;;;;5.97;1.13;;;7.00;99.90;;;;;;4995017;28;20025;-79
2023/12/12 03:23:47;;;;;;;3.50;1.40;;;7.00;99.90;;;;;;4990551;28;20121;-80
2023/12/12 03:26:13;;;;;;;3.47;1.13;;;7.00;99.90;;;;;;4995776;28;20031;-79
2023/12/12 03:28:39;;;;;;;4.00;1.20;;;7.00;99.90;;;;;;4995537;28;20477;-78
2023/12/12 03:31:05;;;;;;;3.45;1.05;;;7.00;99.90;;;;;;4997726;28;20031;-78
2023/12/12 03:33:30;;;;;;;2.28;1.23;;;7.00;99.90;;;;;;4994765;28;20544;-79
2023/12/12 03:35:56;;;;;;;5.15;1.48;;;7.00;99.90;;;;;;4993375;28;20082;-78
2023/12/12 03:38:22;;;;;;;5.13;0.93;;;7.00;99.90;;;;;;4994102;28;20026;-78
2023/12/12 03:40:47;;;;;;;2.90;1.20;;;7.00;99.90;;;;;;4990278;28;20725;-79
2023/12/12 03:43:13;;;;;;;4.28;1.20;;;6.90;99.90;;;;;;4997698;28;20034;-77
2023/12/12 03:45:39;;;;;;;4.28;1.38;;;6.90;99.90;;;;;;4996630;28;20109;-78
2023/12/12 03:48:04;;;;;;;2.95;1.08;;;7.00;99.90;;;;;;4994502;28;20582;-78
2023/12/12 03:50:30;;;;;;;3.10;1.45;;;7.00;99.90;;;;;;4994834;28;20034;-78
2023/12/12 03:52:55;;;;;;;3.00;1.27;;;6.90;99.90;;;;;;4991357;28;20034;-78
2023/12/12 03:55:21;;;;;;;5.57;1.50;;;7.00;99.90;;;;;;4993514;28;20034;-79
2023/12/12 03:57:47;;;;;;;4.13;1.00;;;6.90;99.90;;;;;;4995560;28;20191;-79
2023/12/12 04:00:13;;;;;;;2.47;1.30;;;7.00;99.90;;;;;;4997894;28;20037;-79
2023/12/12 04:02:40;;;;;;;2.83;1.25;;;7.00;99.90;;;;;;4992945;28;20084;-78
2023/12/12 04:05:09;;;;;;;7.15;1.10;;;7.00;99.90;;;;;;4993430;28;20033;-79
2023/12/12 04:07:39;;;;;;;2.65;0.80;;;7.00;99.90;;;;;;4994583;28;20030;-79
2023/12/12 04:10:08;;;;;;;2.97;1.10;;;7.00;99.90;;;;;;4992646;28;20071;-79
2023/12/12 04:12:35;;;;;;;2.30;0.95;;;7.00;99.90;;;;;;4992595;28;20041;-79
2023/12/12 04:15:00;;;;;;;3.30;0.80;;;7.00;99.90;;;;;;4994989;28;20495;-79
2023/12/12 04:17:26;;;;;;;2.65;0.88;;;7.00;99.90;;;;;;4996218;28;20030;-79
2023/12/12 04:19:52;;;;;;;4.47;0.80;;;7.00;99.90;;;;;;4995898;28;20074;-79
2023/12/12 04:22:17;;;;;;;2.40;0.68;;;7.00;99.90;;;;;;4993856;28;20038;-78
2023/12/12 04:24:43;;;;;;;4.75;1.40;;;7.10;99.90;;;;;;4992156;28;20145;-79
2023/12/12 04:27:08;;;;;;;1.40;0.80;;;7.10;99.90;;;;;;5001134;28;20026;-79
2023/12/12 04:29:34;;;;;;;1.27;0.60;;;7.10;99.90;;;;;;4994870;28;20054;-79
2023/12/12 04:31:59;;;;;;;1.60;0.88;;;7.10;99.90;;;;;;4996470;28;20495;-79
2023/12/12 04:34:25;;;;;;;2.22;0.80;;;7.10;99.90;;;;;;4995672;28;21426;-79
2023/12/12 04:36:51;;;;;;;4.03;0.93;;;7.20;99.90;;;;;;4993334;28;20109;-79
2023/12/12 04:39:17;;;;;;;4.97;1.10;;;7.20;99.90;;;;;;4991310;28;20038;-80
2023/12/12 04:41:43;;;;;;;2.25;0.63;;;7.20;99.90;;;;;;4991866;28;20558;-79
2023/12/12 04:44:09;;;;;;;2.15;0.90;;;7.20;99.90;;;;;;4997688;28;20075;-79
2023/12/12 04:46:35;;;;;;;1.88;0.90;;;7.20;99.90;;;;;;4993094;28;20038;-80
2023/12/12 04:49:02;;;;;;;1.42;0.70;;;7.30;99.90;;;;;;4991237;28;20030;-79
2023/12/12 04:51:28;;;;;;;4.15;1.25;;;7.20;99.90;;;;;;4997234;28;20029;-80
2023/12/12 04:53:54;;;;;;;3.53;0.90;;;7.30;99.90;;;;;;4995202;28;20026;-79
2023/12/12 04:56:19;;;;;;;5.22;1.33;;;7.30;99.90;;;;;;4990621;28;20073;-80
2023/12/12 04:58:46;;;;;;;3.95;0.98;;;7.30;99.90;;;;;;4990458;28;20038;-79
2023/12/12 05:01:14;;;;;;;3.20;1.30;;;7.30;99.90;;;;;;4988469;28;20073;-80
2023/12/12 05:03:40;;;;;;;2.08;0.75;;;7.40;99.90;;;;;;4992546;28;20033;-79
2023/12/12 05:06:07;;;;;;;3.78;1.13;;;7.40;99.90;;;;;;4991801;28;20027;-79
2023/12/12 05:08:33;;;;;;;3.65;1.02;;;7.40;99.90;;;;;;4994062;28;20376;-79
2023/12/12 05:10:58;;;;;;;2.13;1.05;;;7.40;99.90;;;;;;4994286;28;20042;-79
2023/12/12 05:13:24;;;;;;;2.33;0.85;;;7.40;99.90;;;;;;4994899;28;20041;-79
2023/12/12 05:15:50;;;;;;;4.10;1.05;;;7.40;99.90;;;;;;4991021;28;20045;-79
2023/12/12 05:18:15;;;;;;;2.58;1.67;;;7.50;99.90;;;;;;4995900;28;20036;-79
2023/12/12 05:20:41;;;;;;;3.35;1.38;;;7.50;99.90;;;;;;4988589;28;20376;-80
2023/12/12 05:23:07;;;;;;;2.97;1.00;;;7.50;99.90;;;;;;4999404;28;20030;-80
2023/12/12 05:25:33;;;;;;;4.20;1.30;;;7.50;99.90;;;;;;4995428;28;20296;-79
2023/12/12 05:27:59;;;;;;;4.30;1.50;;;7.50;99.90;;;;;;4991377;28;20034;-79
2023/12/12 05:30:25;;;;;;;8.45;1.23;;;7.50;99.90;;;;;;4989741;28;20030;-80
2023/12/12 05:32:50;;;;;;;2.25;1.00;;;7.60;99.90;;;;;;4992921;28;20038;-80
2023/12/12 05:35:16;;;;;;;3.33;1.20;;;7.60;99.90;;;;;;4992118;28;20056;-80
2023/12/12 05:37:41;;;;;;;1.92;1.00;;;7.60;99.90;;;;;;4999384;28;20026;-80
2023/12/12 05:40:07;;;;;;;2.75;1.02;;;7.60;99.90;;;;;;4991279;28;20030;-80
2023/12/12 05:42:33;;;;;;;2.05;0.90;;;7.60;99.90;;;;;;4988865;28;20018;-80
2023/12/12 05:44:59;;;;;;;2.60;0.60;;;7.60;99.90;;;;;;4994312;28;20033;-80
2023/12/12 05:47:25;;;;;;;2.90;1.10;;;7.60;99.90;;;;;;4994645;28;20030;-80
2023/12/12 05:49:50;;;;;;;2.83;1.08;;;7.70;99.90;;;;;;4991241;28;20039;-79
2023/12/12 05:52:16;;;;;;;2.05;0.95;;;7.70;99.90;;;;;;4995254;28;20065;-79
2023/12/12 05:54:42;;;;;;;1.65;0.95;;;7.70;99.90;;;;;;4993133;28;20109;-79
2023/12/12 05:57:08;;;;;;;1.85;0.90;;;7.70;99.90;;;;;;4991421;28;20030;-79
2023/12/12 05:59:34;;;;;;;1.55;0.82;;;7.70;99.90;;;;;;4990620;28;20030;-79
2023/12/12 06:02:00;;;;;;;2.70;1.25;;;7.70;99.90;;;;;;4992498;28;20101;-79
2023/12/12 06:04:27;;;;;;;2.13;1.17;;;7.70;99.90;;;;;;4991899;28;20030;-79
2023/12/12 06:06:52;;;;;;;1.98;1.30;;;7.70;99.90;;;;;;4991898;28;20031;-79
2023/12/12 06:09:18;;;;;;;3.10;1.10;;;7.70;99.90;;;;;;4994982;28;20092;-78
2023/12/12 06:11:44;;;;;;;4.28;1.45;;;7.70;99.90;;;;;;4993248;28;20102;-79
2023/12/12 06:14:09;;;;;;;3.58;1.33;;;7.70;99.90;;;;;;4990022;28;20081;-78
2023/12/12 06:16:35;;;;;;;2.53;1.65;;;7.70;99.90;;;;;;4989873;28;20097;-80
2023/12/12 06:19:04;;;;;;;4.75;1.45;;;7.70;99.90;;;;;;4997264;28;20038;-79
2023/12/12 06:21:33;;;;;;;5.43;1.67;;;7.70;99.90;;;;;;4990389;28;20026;-79
2023/12/12 06:24:03;;;;;;;4.38;1.58;;;7.70;99.90;;;;;;4992153;28;20436;-79
2023/12/12 06:26:29;;;;;;;2.90;1.73;;;7.60;99.90;;;;;;4993806;28;20033;-80
2023/12/12 06:28:55;;;;;;;4.43;2.22;;;7.70;99.90;;;;;;4990912;28;20061;-80
2023/12/12 06:31:22;;;;;;;3.30;1.67;;;7.70;99.90;;;;;;4992318;28;20387;-80
2023/12/12 06:33:49;;;;;;;3.50;1.80;;;7.60;99.90;;;;;;4989460;28;20058;-79
2023/12/12 06:36:15;;;;;;;6.18;3.00;;;7.60;99.90;;;;;;4994073;28;20034;-79
2023/12/12 06:38:42;;;;;;;6.43;2.72;;;7.60;99.90;;;;;;4993548;28;20034;-79
2023/12/12 06:41:09;;;;;;;6.78;3.05;;;7.70;99.90;;;;;;4997738;28;20050;-79
2023/12/12 06:43:34;;;;;;;6.68;3.10;;;7.70;99.90;;;;;;4990920;28;20034;-79
2023/12/12 06:46:00;;;;;;;7.10;3.00;;;7.60;99.90;;;;;;4995620;28;20018;-78
2023/12/12 06:48:26;;;;;;;9.32;4.38;;;7.60;99.90;;;;;;4991116;28;20049;-79
2023/12/12 06:50:52;;;;;;;7.05;3.20;;;7.70;99.90;;;;;;4990474;28;20026;-78
2023/12/12 06:53:18;;;;;;;11.80;3.45;;;7.60;99.90;;;;;;4987691;28;20030;-80
2023/12/12 06:55:45;;;;;;;7.45;3.20;;;7.60;99.90;;;;;;4993553;28;20057;-79
2023/12/12 06:58:11;;;;;;;7.57;3.00;;;7.70;99.90;;;;;;4994894;28;20060;-78
2023/12/12 07:00:40;;;;;;;6.38;3.42;;;7.70;99.90;;;;;;4992364;28;20106;-79
2023/12/12 07:03:05;;;;;;;4.68;2.20;;;7.70;99.90;;;;;;4991701;28;20038;-78
2023/12/12 07:05:31;;;;;;;3.17;2.17;;;7.80;99.90;;;;;;4991661;28;20030;-78
2023/12/12 07:07:57;;;;;;;6.28;2.60;;;7.80;99.90;;;;;;4996009;28;20058;-78
2023/12/12 07:10:22;;;;;;;8.88;2.72;;;7.80;99.90;;;;;;4993364;28;20037;-78
2023/12/12 07:12:48;;;;;;;5.70;2.67;;;7.80;99.90;;;;;;4990193;28;20038;-78
2023/12/12 07:15:14;;;;;;;4.32;2.45;;;7.90;99.90;;;;;;4993465;28;20383;-79
2023/12/12 07:17:40;;;;;;;4.93;2.55;;;7.90;99.90;;;;;;5036737;23;20048;-82
2023/12/12 07:20:06;;;;;;;7.90;2.80;;;7.90;99.90;;;;;;5067867;28;20024;-82
2023/12/12 07:22:32;;;;;;;6.35;3.10;;;7.90;99.90;;;;;;5070064;28;20016;-82
2023/12/12 07:24:58;;;;;;;13.90;3.40;;;8.00;99.90;;;;;;5069116;28;20120;-81
2023/12/12 07:27:23;;;;;;;17.92;4.15;;;8.00;99.90;;;;;;5066328;28;20028;-81
2023/12/12 07:29:49;;;;;;;14.45;4.07;;;7.90;99.90;;;;;;5057625;28;20032;-81
2023/12/12 07:32:14;;;;;;;14.18;4.07;;;7.80;99.90;;;;;;5068439;28;20132;-81
2023/12/12 07:34:40;;;;;;;12.23;4.57;;;7.70;99.90;;;;;;5052826;28;20029;-82
2023/12/12 07:37:06;;;;;;;14.65;4.32;;;7.70;99.90;;;;;;5059665;28;20029;-82
2023/12/12 07:39:32;;;;;;;13.90;3.83;;;7.70;99.90;;;;;;5050232;28;20025;-82
2023/12/12 07:41:58;;;;;;;13.30;4.20;;;7.60;99.90;;;;;;5052207;28;20113;-84
2023/12/12 07:44:23;;;;;;;16.95;4.03;;;7.60;99.90;;;;;;5049415;28;20690;-81
2023/12/12 07:46:49;;;;;;;15.02;4.22;;;7.60;99.90;;;;;;5052471;28;20043;-82
2023/12/12 07:49:15;;;;;;;14.18;3.95;;;7.60;99.90;;;;;;5073200;28;20021;-81
2023/12/12 07:51:40;;;;;;;9.25;4.25;;;7.60;99.90;;;;;;5064100;28;20067;-81
2023/12/12 07:54:06;;;;;;;13.63;3.53;;;7.60;99.90;;;;;;5053645;28;20056;-81
2023/12/12 07:56:32;;;;;;;10.35;3.72;;;7.60;99.90;;;;;;5050134;28;20112;-81
2023/12/12 07:58:57;;;;;;;11.95;3.38;;;7.60;99.90;;;;;;5068225;28;20037;-81
2023/12/12 08:01:23;;;;;;;10.93;3.80;;;7.60;99.90;;;;;;5076236;28;20032;-81
2023/12/12 08:03:49;;;;;;;7.95;3.15;;;7.60;99.90;;;;;;5080200;28;20044;-82
2023/12/12 08:06:14;;;;;;;9.38;3.42;;;7.60;99.90;;;;;;5058400;28;20028;-83
2023/12/12 08:08:40;;;;;;;10.52;3.85;;;7.60;99.90;;;;;;5069874;28;20032;-83
2023/12/12 08:11:12;;;;;;;11.77;4.05;;;7.60;99.90;;;;;;5079205;28;20097;-83
2023/12/12 08:13:37;;;;;;;13.20;4.00;;;7.60;99.90;;;;;;5076435;28;20025;-83
2023/12/12 08:16:03;;;;;;;15.15;3.72;;;7.60;99.90;;;;;;5058800;28;20175;-83
2023/12/12 08:18:30;;;;;;;10.77;4.25;;;7.70;99.90;;;;;;5073421;28;20021;-83
2023/12/12 08:20:56;;;;;;;7.63;3.33;;;7.70;99.90;;;;;;5053357;28;20395;-83
2023/12/12 08:23:21;;;;;;;4.85;2.30;;;7.70;99.90;;;;;;5058933;28;20021;-83
2023/12/12 08:25:47;;;;;;;3.28;1.90;;;7.70;99.90;;;;;;5071517;28;20191;-83
2023/12/12 08:28:13;;;;;;;4.03;1.85;;;7.80;99.90;;;;;;5049114;28;20126;-82
2023/12/12 08:30:39;;;;;;;4.32;1.98;;;7.80;99.90;;;;;;5067602;28;20036;-81
2023/12/12 08:33:04;;;;;;;2.42;1.15;;;7.90;99.90;;;;;;5052223;28;20031;-81
2023/12/12 08:35:30;;;;;;;2.20;0.82;;;8.00;99.90;;;;;;5050700;28;20111;-81
2023/12/12 08:37:56;;;;;;;1.60;0.73;;;8.10;99.90;;;;;;5064709;28;20081;-81
2023/12/12 08:40:21;;;;;;;1.30;0.70;;;8.10;99.90;;;;;;5064924;28;20671;-81
2023/12/12 08:42:48;;;;;;;1.30;0.70;;;8.20;99.90;;;;;;5061954;28;20042;-81
2023/12/12 08:45:14;;;;;;;1.27;0.52;;;8.20;99.90;;;;;;5067336;28;20079;-81
2023/12/12 08:47:39;;;;;;;0.93;0.50;;;8.30;99.90;;;;;;5047500;28;20483;-82
2023/12/12 08:50:05;;;;;;;0.90;0.50;;;8.40;99.90;;;;;;5070795;28;20037;-81
2023/12/12 08:52:34;;;;;;;0.82;0.60;;;8.50;99.90;;;;;;5068034;28;20032;-81
2023/12/12 08:54:59;;;;;;;1.42;0.88;;;8.50;99.90;;;;;;5068067;28;20095;-82
2023/12/12 08:57:25;;;;;;;0.55;0.40;;;8.60;99.90;;;;;;5068544;28;20455;-81
2023/12/12 08:59:51;;;;;;;2.95;0.73;;;8.60;99.90;;;;;;5050330;28;20465;-82
2023/12/12 09:02:17;;;;;;;1.40;0.80;;;8.70;99.90;;;;;;5049860;28;20025;-82
2023/12/12 09:04:43;;;;;;;1.40;0.60;;;8.70;99.90;;;;;;5066954;28;20369;-81
2023/12/12 09:07:09;;;;;;;1.30;0.52;;;8.80;99.90;;;;;;5067432;28;20028;-81
2023/12/12 09:09:34;;;;;;;1.30;0.60;;;8.90;99.90;;;;;;5070802;28;20111;-81
2023/12/12 09:12:04;;;;;;;1.30;0.65;;;8.90;99.90;;;;;;5063071;28;20032;-82
2023/12/12 09:14:30;;;;;;;1.77;0.65;;;8.90;99.90;;;;;;5071495;28;20021;-81
2023/12/12 09:16:55;;;;;;;2.70;0.82;;;8.90;99.90;;;;;;5070022;28;20070;-82
2023/12/12 09:19:21;;;;;;;1.67;0.73;;;9.00;99.90;;;;;;5076682;28;20040;-82
2023/12/12 09:21:48;;;;;;;1.45;0.50;;;9.00;99.90;;;;;;5058981;28;20712;-82
2023/12/12 09:24:14;;;;;;;4.90;2.38;;;9.10;99.90;;;;;;5052292;28;20032;-82
2023/12/12 09:26:40;;;;;;;31.13;12.20;;;9.10;99.90;;;;;;5067925;28;20016;-82
2023/12/12 09:29:06;;;;;;;32.67;12.57;;;8.90;99.90;;;;;;5069670;28;20116;-83
2023/12/12 09:31:32;;;;;;;25.35;11.98;;;8.80;99.90;;;;;;5054920;28;20024;-82
2023/12/12 09:34:01;;;;;;;13.00;6.85;;;8.70;99.90;;;;;;5068592;28;20031;-82
2023/12/12 09:36:26;;;;;;;13.73;5.57;;;8.50;99.90;;;;;;5070660;28;20105;-83
2023/12/12 09:38:52;;;;;;;11.00;5.30;;;8.50;99.90;;;;;;5078670;28;20036;-82
2023/12/12 09:41:22;;;;;;;9.63;3.85;;;8.30;99.90;;;;;;5070163;28;20028;-82
2023/12/12 09:43:49;;;;;;;8.25;4.28;;;8.30;99.90;;;;;;5081537;28;20058;-82
2023/12/12 09:46:20;;;;;;;9.07;4.32;;;8.20;99.90;;;;;;5067554;28;20047;-83
2023/12/12 09:48:48;;;;;;;10.85;4.85;;;8.10;99.90;;;;;;5071660;28;20020;-82
2023/12/12 09:51:16;;;;;;;10.23;4.85;;;8.10;99.90;;;;;;5057130;28;20028;-82
2023/12/12 09:53:46;;;;;;;9.98;4.80;;;8.10;99.90;;;;;;5057202;28;20049;-82
2023/12/12 09:56:17;;;;;;;11.80;4.57;;;8.00;99.90;;;;;;5065415;28;20020;-82
2023/12/12 09:58:46;;;;;;;7.07;3.90;;;8.00;99.90;;;;;;5073425;28;20021;-82
2023/12/12 10:01:12;;;;;;;15.98;5.22;;;8.00;99.90;;;;;;5054957;28;20054;-82
2023/12/12 10:03:39;;;;;;;10.02;5.22;;;7.90;99.90;;;;;;5069244;28;20060;-83
2023/12/12 10:06:11;;;;;;;7.30;4.05;;;7.90;99.90;;;;;;5065114;28;20063;-83
2023/12/12 10:08:37;;;;;;;10.50;4.30;;;7.80;99.90;;;;;;5067234;28;20485;-82
2023/12/12 10:11:06;;;;;;;9.18;4.40;;;7.80;99.90;;;;;;5051930;28;20029;-82
2023/12/12 10:13:54;;;;;;;11.82;4.35;;;7.80;99.90;;;;;;5070477;28;20009;-82
2023/12/12 10:16:20;;;;;;;11.70;4.40;;;7.80;99.90;;;;;;5074600;28;20048;-82
2023/12/12 10:18:50;;;;;;;11.40;4.45;;;7.80;99.90;;;;;;5074773;28;20066;-82
2023/12/12 10:21:23;;;;;;;13.88;3.92;;;7.80;99.90;;;;;;5070190;28;20016;-82
2023/12/12 10:23:50;;;;;;;9.88;4.30;;;7.70;99.90;;;;;;5068707;28;20017;-83
2023/12/12 10:26:29;;;;;;;14.75;4.28;;;7.70;99.90;;;;;;5066798;28;20024;-82
2023/12/12 10:28:55;;;;;;;10.40;4.47;;;7.70;99.90;;;;;;5068929;28;20103;-82
2023/12/12 10:31:24;;;;;;;13.27;4.65;;;7.70;99.90;;;;;;5060478;28;20083;-84
2023/12/12 10:33:51;;;;;;;13.93;5.03;;;7.70;99.90;;;;;;5069261;28;20008;-84
2023/12/12 10:36:17;;;;;;;9.90;5.40;;;7.70;99.90;;;;;;5073920;28;20024;-82
2023/12/12 10:38:44;;;;;;;12.05;4.93;;;7.70;99.90;;;;;;5064916;28;20500;-85
2023/12/12 10:41:19;;;;;;;11.48;4.90;;;7.60;99.90;;;;;;5073868;28;20033;-83
2023/12/12 10:43:46;;;;;;;10.45;5.30;;;7.70;99.90;;;;;;5070844;28;20020;-82
2023/12/12 10:46:19;;;;;;;11.52;5.68;;;7.70;99.90;;;;;;5052765;28;20046;-82
2023/12/12 10:48:49;;;;;;;11.70;5.70;;;7.70;99.90;;;;;;5072711;28;20717;-83
2023/12/12 10:51:17;;;;;;;10.65;4.32;;;7.70;99.90;;;;;;5055249;28;20514;-83
2023/12/12 10:53:44;;;;;;;9.52;4.30;;;7.70;99.90;;;;;;5050475;28;20547;-83
2023/12/12 10:56:11;;;;;;;11.13;5.07;;;7.70;99.90;;;;;;5048485;28;20033;-83
2023/12/12 10:58:39;;;;;;;10.85;5.18;;;7.70;99.90;;;;;;5064271;28;20040;-82
2023/12/12 11:01:08;;;;;;;8.77;4.32;;;7.70;99.90;;;;;;5060901;28;20021;-82
2023/12/12 11:03:36;;;;;;;9.75;5.32;;;7.70;99.90;;;;;;5070599;28;20025;-83
2023/12/12 11:06:03;;;;;;;10.07;5.88;;;7.70;99.90;;;;;;5052808;28;20501;-83
2023/12/12 11:08:30;;;;;;;10.50;4.80;;;7.80;99.90;;;;;;5068157;28;20039;-82
2023/12/12 11:10:55;;;;;;;15.40;4.93;;;7.80;99.90;;;;;;5057305;28;20056;-82
2023/12/12 11:13:24;;;;;;;13.05;5.32;;;7.90;99.90;;;;;;5055945;28;20047;-82
2023/12/12 11:15:53;;;;;;;11.18;5.60;;;8.00;99.90;;;;;;5071297;28;20039;-84
2023/12/12 11:18:20;;;;;;;15.93;5.90;;;8.00;99.90;;;;;;5039338;28;20028;-83
2023/12/12 11:20:50;;;;;;;8.90;5.25;;;8.00;99.90;;;;;;5072781;28;20419;-83
2023/12/12 11:23:53;;;;;;;14.93;5.20;;;8.10;99.90;;;;;;5048952;28;20029;-83
2023/12/12 11:26:25;;;;;;;8.38;4.82;;;8.10;99.90;;;;;;5066783;28;20481;-83
2023/12/12 11:28:52;;;;;;;12.20;5.13;;;8.30;99.90;;;;;;5048949;28;20083;-83
2023/12/12 11:31:23;;;;;;;12.75;5.18;;;8.30;99.90;;;;;;5047975;28;20092;-84
2023/12/12 11:34:09;;;;;;;9.75;4.65;;;8.40;99.90;;;;;;5062587;28;20128;-85
2023/12/12 11:36:48;;;;;;;14.65;5.35;;;8.50;99.90;;;;;;5052303;28;20029;-85
2023/12/12 11:39:17;;;;;;;10.13;4.60;;;8.60;99.90;;;;;;5069808;28;20103;-85
2023/12/12 11:41:45;;;;;;;11.85;4.25;;;8.70;99.90;;;;;;5076536;28;20060;-83
2023/12/12 11:44:11;;;;;;;9.18;4.20;;;8.80;99.90;;;;;;5051235;28;20021;-83
2023/12/12 11:46:37;;;;;;;8.27;3.80;;;8.90;99.90;;;;;;5055309;28;20369;-84
2023/12/12 11:49:22;;;;;;;7.25;3.65;;;8.90;99.90;;;;;;5073362;28;20028;-83
2023/12/12 11:51:49;;;;;;;3.33;1.70;;;9.00;99.90;;;;;;5068344;28;20071;-83
2023/12/12 11:54:24;;;;;;;3.63;2.03;;;9.10;99.90;;;;;;5070208;28;20410;-83
2023/12/12 11:57:00;;;;;;;3.92;1.35;;;9.10;99.90;;;;;;5052666;28;20085;-84
2023/12/12 11:59:28;;;;;;;5.03;1.65;;;9.20;99.90;;;;;;5053358;28;20031;-83
2023/12/12 12:01:54;;;;;;;4.05;1.25;;;9.20;99.90;;;;;;5067273;28;20024;-83
2023/12/12 12:04:21;;;;;;;2.55;1.25;;;9.30;99.90;;;;;;5068877;28;20046;-81
2023/12/12 12:06:50;;;;;;;3.67;1.10;;;9.30;99.90;;;;;;5069980;28;20071;-83
2023/12/12 12:09:16;;;;;;;3.33;1.20;;;9.30;99.90;;;;;;5057928;28;20040;-82
2023/12/12 12:11:52;;;;;;;3.25;1.08;;;9.40;99.90;;;;;;5058813;28;20061;-83
2023/12/12 12:14:22;;;;;;;2.90;0.80;;;9.50;99.90;;;;;;5082874;28;20109;-84
2023/12/12 12:16:58;;;;;;;1.55;0.85;;;9.50;99.90;;;;;;5073459;28;20090;-83
2023/12/12 12:19:34;;;;;;;1.25;0.93;;;9.50;99.90;;;;;;5061776;28;20064;-82
2023/12/12 12:22:12;;;;;;;2.15;1.02;;;9.50;99.90;;;;;;5057021;28;20024;-82
2023/12/12 12:24:48;;;;;;;1.90;0.80;;;9.50;99.90;;;;;;5050085;28;20042;-83
2023/12/12 12:27:14;;;;;;;1.88;0.80;;;9.60;99.90;;;;;;5052761;28;20035;-84
2023/12/12 12:29:41;;;;;;;2.45;1.00;;;9.60;99.90;;;;;;5057386;28;20044;-83
2023/12/12 12:32:16;;;;;;;1.88;1.02;;;9.60;99.90;;;;;;5054709;28;20481;-83
2023/12/12 12:34:43;;;;;;;2.13;0.85;;;9.60;99.90;;;;;;5071500;28;20020;-83
2023/12/12 12:37:32;;;;;;;2.15;1.23;;;9.70;99.90;;;;;;5053668;28;20539;-83
2023/12/12 12:39:57;;;;;;;5.18;1.50;;;9.70;99.90;;;;;;5051741;28;20059;-85
2023/12/12 12:42:37;;;;;;;3.30;1.00;;;9.70;99.90;;;;;;5071161;28;20029;-83
2023/12/12 12:45:04;;;;;;;3.33;1.52;;;9.70;99.90;;;;;;5074303;28;20036;-83
2023/12/12 12:47:30;;;;;;;6.35;1.27;;;9.70;99.90;;;;;;5036219;28;20075;-83
2023/12/12 12:49:56;;;;;;;1.73;1.05;;;9.80;99.90;;;;;;5070976;28;20500;-83
2023/12/12 12:52:25;;;;;;;3.28;0.88;;;9.80;99.90;;;;;;5070377;28;20029;-83
2023/12/12 12:54:51;;;;;;;2.92;0.88;;;9.80;99.90;;;;;;5066618;28;20532;-83